createdAt,value
2018-06-09T00:02:14.025Z,29.87
2018-06-09T00:04:45.521Z,32.27
2018-06-09T00:07:16.845Z,31.67
2018-06-09T00:09:48.333Z,28.37
2018-06-09T00:12:20.053Z,28.93
2018-06-09T00:14:52.068Z,28.13
2018-06-09T00:17:23.997Z,28.60
2018-06-09T00:19:55.484Z,28.93
2018-06-09T00:22:27.069Z,30.70
2018-06-09T00:24:58.380Z,30.80
2018-06-09T00:27:29.717Z,30.00
2018-06-09T00:30:01.026Z,27.90
2018-06-09T00:32:32.360Z,28.90
2018-06-09T00:35:03.978Z,30.67
2018-06-09T00:37:35.487Z,28.67
2018-06-09T00:40:07.503Z,28.43
2018-06-09T00:42:39.282Z,27.73
2018-06-09T00:45:10.891Z,29.87
2018-06-09T00:47:42.985Z,28.10
2018-06-09T00:50:14.573Z,28.67
2018-06-09T00:52:46.054Z,27.13
2018-06-09T00:55:17.714Z,29.50
2018-06-09T00:57:49.467Z,27.83
2018-06-09T01:00:21.131Z,28.73
2018-06-09T01:02:52.946Z,27.77
2018-06-09T01:05:24.733Z,29.53
2018-06-09T01:07:56.300Z,30.07
2018-06-09T01:10:27.957Z,30.43
2018-06-09T01:13:01.342Z,31.60
2018-06-09T01:15:32.847Z,29.03
2018-06-09T01:18:04.165Z,29.47
2018-06-09T01:20:36.490Z,29.53
2018-06-09T01:23:07.943Z,28.03
2018-06-09T01:25:39.282Z,32.33
2018-06-09T01:28:10.581Z,28.67
2018-06-09T01:30:42.154Z,28.97
2018-06-09T01:33:13.769Z,27.40
2018-06-09T01:35:44.933Z,26.67
2018-06-09T01:38:16.181Z,26.90
2018-06-09T01:40:47.395Z,27.10
2018-06-09T01:43:18.801Z,26.70
2018-06-09T01:45:51.701Z,26.13
2018-06-09T01:48:23.476Z,27.93
2018-06-09T01:50:55.012Z,28.57
2018-06-09T01:53:26.495Z,27.60
2018-06-09T01:55:58.074Z,30.90
2018-06-09T01:58:29.806Z,29.90
2018-06-09T02:01:01.326Z,28.00
2018-06-09T02:03:32.846Z,26.53
2018-06-09T02:06:04.379Z,26.87
2018-06-09T02:08:35.861Z,23.10
2018-06-09T02:11:07.396Z,25.87
2018-06-09T02:13:38.841Z,26.20
2018-06-09T02:16:10.118Z,26.80
2018-06-09T02:18:41.462Z,27.77
2018-06-09T02:21:13.070Z,24.70
2018-06-09T02:23:44.670Z,25.67
2018-06-09T02:26:16.213Z,25.70
2018-06-09T02:28:47.993Z,24.27
2018-06-09T02:31:19.491Z,27.27
2018-06-09T02:33:50.901Z,25.57
2018-06-09T02:36:22.561Z,24.70
2018-06-09T02:38:54.140Z,28.23
2018-06-09T02:41:25.602Z,25.47
2018-06-09T02:43:57.457Z,25.20
2018-06-09T02:46:29.190Z,23.97
2018-06-09T02:49:00.698Z,26.53
2018-06-09T02:51:32.018Z,25.87
2018-06-09T02:54:03.838Z,24.63
2018-06-09T02:56:35.590Z,24.53
2018-06-09T02:59:07.058Z,24.40
2018-06-09T03:01:38.463Z,24.03
2018-06-09T03:04:09.890Z,27.53
2018-06-09T03:06:41.509Z,23.97
2018-06-09T03:09:12.646Z,25.33
2018-06-09T03:11:43.933Z,24.07
2018-06-09T03:14:15.413Z,25.23
2018-06-09T03:16:46.897Z,24.33
2018-06-09T03:19:18.563Z,24.40
2018-06-09T03:21:50.093Z,24.00
2018-06-09T03:24:21.773Z,21.97
2018-06-09T03:26:53.327Z,23.63
2018-06-09T03:29:24.865Z,24.50
2018-06-09T03:31:56.415Z,24.33
2018-06-09T03:34:27.993Z,22.30
2018-06-09T03:36:59.164Z,23.60
2018-06-09T03:39:30.791Z,23.23
2018-06-09T03:42:02.356Z,21.77
2018-06-09T03:44:34.025Z,22.83
2018-06-09T03:47:05.855Z,22.47
2018-06-09T03:49:37.587Z,22.97
2018-06-09T03:52:09.591Z,23.57
2018-06-09T03:54:42.547Z,22.27
2018-06-09T03:57:14.129Z,22.00
2018-06-09T03:59:45.617Z,22.53
2018-06-09T04:02:17.105Z,22.77
2018-06-09T04:04:48.985Z,19.07
2018-06-09T04:07:20.557Z,18.67
2018-06-09T04:09:52.111Z,19.93
2018-06-09T04:12:23.819Z,19.23
2018-06-09T04:14:55.704Z,20.07
2018-06-09T04:17:27.158Z,20.83
2018-06-09T04:19:58.694Z,17.97
2018-06-09T04:22:30.205Z,19.40
2018-06-09T04:25:01.665Z,17.20
2018-06-09T04:27:33.358Z,19.17
2018-06-09T04:30:04.974Z,18.00
2018-06-09T04:32:36.552Z,18.57
2018-06-09T04:35:08.653Z,18.80
2018-06-09T04:37:40.210Z,19.10
2018-06-09T04:40:11.806Z,19.13
2018-06-09T04:42:43.251Z,18.43
2018-06-09T04:45:14.660Z,20.53
2018-06-09T04:47:46.307Z,17.93
2018-06-09T04:50:17.897Z,18.10
2018-06-09T04:52:49.364Z,17.93
2018-06-09T04:55:21.127Z,16.37
2018-06-09T04:57:52.753Z,17.40
2018-06-09T05:00:24.763Z,17.03
2018-06-09T05:02:56.213Z,17.23
2018-06-09T05:05:27.714Z,16.83
2018-06-09T05:07:58.957Z,19.40
2018-06-09T05:10:30.250Z,17.23
2018-06-09T05:13:01.690Z,17.23
2018-06-09T05:15:33.193Z,16.47
2018-06-09T05:18:05.517Z,16.10
2018-06-09T05:20:37.429Z,16.30
2018-06-09T05:23:09.018Z,17.33
2018-06-09T05:25:40.534Z,17.13
2018-06-09T05:28:12.108Z,16.40
2018-06-09T05:30:44.153Z,16.30
2018-06-09T05:33:15.658Z,16.20
2018-06-09T05:35:47.211Z,15.23
2018-06-09T05:38:18.770Z,15.10
2018-06-09T05:40:50.466Z,15.23
2018-06-09T05:43:22.333Z,14.03
2018-06-09T05:45:54.009Z,15.70
2018-06-09T05:48:25.587Z,15.00
2018-06-09T05:50:57.231Z,13.90
2018-06-09T05:53:28.793Z,12.93
2018-06-09T05:56:00.258Z,12.43
2018-06-09T05:58:34.712Z,13.80
2018-06-09T06:01:06.366Z,14.50
2018-06-09T06:03:38.001Z,12.20
2018-06-09T06:06:09.505Z,12.47
2018-06-09T06:08:40.957Z,12.80
2018-06-09T06:11:12.544Z,15.10
2018-06-09T06:13:44.205Z,17.70
2018-06-09T06:16:15.890Z,13.17
2018-06-09T06:18:47.555Z,13.43
2018-06-09T06:21:19.353Z,12.33
2018-06-09T06:23:51.318Z,13.53
2018-06-09T06:26:22.480Z,13.47
2018-06-09T06:28:53.809Z,12.70
2018-06-09T06:31:25.698Z,12.77
2018-06-09T06:33:57.268Z,12.77
2018-06-09T06:36:28.921Z,13.57
2018-06-09T06:39:00.587Z,12.63
2018-06-09T06:41:32.106Z,12.70
2018-06-09T06:44:04.027Z,13.83
2018-06-09T06:46:35.557Z,13.97
2018-06-09T06:49:07.715Z,13.23
2018-06-09T06:51:39.345Z,12.77
2018-06-09T06:54:10.859Z,13.40
2018-06-09T06:56:42.346Z,12.43
2018-06-09T06:59:14.106Z,13.50
2018-06-09T07:01:45.647Z,13.13
2018-06-09T07:04:17.285Z,12.80
2018-06-09T07:06:49.143Z,12.63
2018-06-09T07:09:20.571Z,13.60
2018-06-09T07:11:51.708Z,13.10
2018-06-09T07:14:23.102Z,13.13
2018-06-09T07:16:54.601Z,12.30
2018-06-09T07:19:26.115Z,12.63
2018-06-09T07:21:57.614Z,13.40
2018-06-09T07:24:28.881Z,14.27
2018-06-09T07:27:00.333Z,13.10
2018-06-09T07:29:31.943Z,12.33
2018-06-09T07:32:03.610Z,12.57
2018-06-09T07:34:35.105Z,13.83
2018-06-09T07:37:06.733Z,14.10
2018-06-09T07:39:38.007Z,14.57
2018-06-09T07:42:09.393Z,12.63
2018-06-09T07:44:42.011Z,13.27
2018-06-09T07:47:14.047Z,14.43
2018-06-09T07:49:45.574Z,13.73
2018-06-09T07:52:17.342Z,13.20
2018-06-09T07:54:49.086Z,14.50
2018-06-09T07:57:20.767Z,14.30
2018-06-09T07:59:52.334Z,14.00
2018-06-09T08:02:24.061Z,14.23
2018-06-09T08:04:55.787Z,15.93
2018-06-09T08:07:27.614Z,15.67
2018-06-09T08:09:59.715Z,13.67
2018-06-09T08:12:31.624Z,12.73
2018-06-09T08:15:03.818Z,13.23
2018-06-09T08:17:35.378Z,13.03
2018-06-09T08:20:07.686Z,13.40
2018-06-09T08:22:39.605Z,15.80
2018-06-09T08:25:11.380Z,14.87
2018-06-09T08:27:42.940Z,15.57
2018-06-09T08:30:14.323Z,15.83
2018-06-09T08:32:46.181Z,16.87
2018-06-09T08:35:17.830Z,16.33
2018-06-09T08:37:49.522Z,18.10
2018-06-09T08:40:21.385Z,19.40
2018-06-09T08:42:53.283Z,19.77
2018-06-09T08:45:24.975Z,15.17
2018-06-09T08:47:56.633Z,16.50
2018-06-09T08:50:28.225Z,17.70
2018-06-09T08:52:59.906Z,20.07
2018-06-09T08:55:31.525Z,18.37
2018-06-09T08:58:03.747Z,18.13
2018-06-09T09:00:35.618Z,19.77
2018-06-09T09:03:07.395Z,17.80
2018-06-09T09:05:39.145Z,19.00
2018-06-09T09:08:10.835Z,18.00
2018-06-09T09:10:42.524Z,16.93
2018-06-09T09:13:14.377Z,17.67
2018-06-09T09:15:46.326Z,17.60
2018-06-09T09:18:17.880Z,16.43
2018-06-09T09:20:49.668Z,18.47
2018-06-09T09:23:20.965Z,17.03
2018-06-09T09:25:52.490Z,16.07
2018-06-09T09:28:24.477Z,17.17
2018-06-09T09:30:56.466Z,20.77
2018-06-09T09:33:27.926Z,18.20
2018-06-09T09:35:59.435Z,21.67
2018-06-09T09:38:31.177Z,18.17
2018-06-09T09:41:02.798Z,16.73
2018-06-09T09:43:34.405Z,18.10
2018-06-09T09:46:06.283Z,19.03
2018-06-09T09:48:37.874Z,22.00
2018-06-09T09:51:09.557Z,18.57
2018-06-09T09:53:41.229Z,18.90
2018-06-09T09:56:13.272Z,22.80
2018-06-09T09:58:45.075Z,19.53
2018-06-09T10:01:16.661Z,18.87
2018-06-09T10:03:48.498Z,17.80
2018-06-09T10:06:19.872Z,18.50
2018-06-09T10:08:51.203Z,18.50
2018-06-09T10:11:22.829Z,18.13
2018-06-09T10:13:54.534Z,17.73
2018-06-09T10:16:26.411Z,18.20
2018-06-09T10:18:58.085Z,18.20
2018-06-09T10:21:29.670Z,17.73
2018-06-09T10:24:02.095Z,18.23
2018-06-09T10:26:34.318Z,18.27
2018-06-09T10:29:06.456Z,18.77
2018-06-09T10:31:38.766Z,17.73
2018-06-09T10:34:11.262Z,17.52
2018-06-09T10:36:43.209Z,16.80
2018-06-09T10:39:15.297Z,16.67
2018-06-09T10:41:47.073Z,17.60
2018-06-09T10:44:18.951Z,17.60
2018-06-09T10:46:51.291Z,15.43
2018-06-09T10:49:23.345Z,15.43
2018-06-09T10:51:55.633Z,16.32
2018-06-09T10:54:27.749Z,16.12
2018-06-09T10:56:59.905Z,16.87
2018-06-09T10:59:32.133Z,17.27
2018-06-09T11:02:04.413Z,19.15
2018-06-09T11:04:36.558Z,16.90
2018-06-09T11:07:08.737Z,17.27
2018-06-09T11:09:40.850Z,19.02
2018-06-09T11:12:12.892Z,21.23
2018-06-09T11:14:45.222Z,15.08
2018-06-09T11:17:17.747Z,16.27
2018-06-09T11:19:49.995Z,16.55
2018-06-09T11:22:23.540Z,17.17
2018-06-09T11:24:55.719Z,17.70
2018-06-09T11:27:28.225Z,18.12
2018-06-09T11:30:00.454Z,17.90
2018-06-09T11:32:32.693Z,17.12
2018-06-09T11:35:04.969Z,16.93
2018-06-09T11:37:37.439Z,19.90
2018-06-09T11:40:09.871Z,18.20
2018-06-09T11:42:41.942Z,16.85
2018-06-09T11:45:14.136Z,18.48
2018-06-09T11:47:46.518Z,17.20
2018-06-09T11:50:18.586Z,16.00
2018-06-09T11:52:50.743Z,15.23
2018-06-09T11:55:23.006Z,16.75
2018-06-09T11:57:55.087Z,15.65
2018-06-09T12:00:27.266Z,15.72
2018-06-09T12:02:59.604Z,16.77
2018-06-09T12:05:32.123Z,16.73
2018-06-09T12:08:04.508Z,17.87
2018-06-09T12:10:36.573Z,17.02
2018-06-09T12:13:08.773Z,16.20
2018-06-09T12:15:41.053Z,16.90
2018-06-09T12:18:13.457Z,18.25
2018-06-09T12:20:45.657Z,17.70
2018-06-09T12:23:17.852Z,15.05
2018-06-09T12:25:50.041Z,16.35
2018-06-09T12:28:22.317Z,17.17
2018-06-09T12:30:54.665Z,17.60
2018-06-09T12:33:26.745Z,16.85
2018-06-09T12:35:58.784Z,17.05
2018-06-09T12:38:30.892Z,17.00
2018-06-09T12:41:03.226Z,17.75
2018-06-09T12:43:35.538Z,17.20
2018-06-09T12:46:07.902Z,18.40
2018-06-09T12:48:40.324Z,18.15
2018-06-09T12:51:12.611Z,16.02
2018-06-09T12:53:44.809Z,16.95
2018-06-09T12:56:16.925Z,18.37
2018-06-09T12:58:49.157Z,20.20
2018-06-09T13:01:21.372Z,21.35
2018-06-09T13:03:53.516Z,19.12
2018-06-09T13:06:25.680Z,18.92
2018-06-09T13:08:58.069Z,19.48
2018-06-09T13:11:30.194Z,18.02
2018-06-09T13:14:02.816Z,20.37
2018-06-09T13:16:35.129Z,21.15
2018-06-09T13:19:07.562Z,21.23
2018-06-09T13:21:39.305Z,20.68
2018-06-09T13:24:11.143Z,17.67
2018-06-09T13:26:43.539Z,18.07
2018-06-09T13:29:15.590Z,18.42
2018-06-09T13:31:49.150Z,17.00
2018-06-09T13:34:21.417Z,15.45
2018-06-09T13:36:53.897Z,16.23
2018-06-09T13:39:26.117Z,15.32
2018-06-09T13:41:58.498Z,16.30
2018-06-09T13:44:31.017Z,15.65
2018-06-09T13:47:02.893Z,15.72
2018-06-09T13:49:35.123Z,15.98
2018-06-09T13:52:06.967Z,16.97
2018-06-09T13:54:38.941Z,18.10
2018-06-09T13:57:11.535Z,18.70
2018-06-09T13:59:43.581Z,16.17
2018-06-09T14:02:15.804Z,14.93
2018-06-09T14:04:47.940Z,16.40
2018-06-09T14:07:20.080Z,15.25
2018-06-09T14:09:52.337Z,16.17
2018-06-09T14:12:24.498Z,15.20
2018-06-09T14:14:56.561Z,15.98
2018-06-09T14:17:28.593Z,17.15
2018-06-09T14:20:00.720Z,14.80
2018-06-09T14:22:32.614Z,14.90
2018-06-09T14:25:05.195Z,15.35
2018-06-09T14:27:37.278Z,17.12
2018-06-09T14:30:09.433Z,16.55
2018-06-09T14:32:41.467Z,15.88
2018-06-09T14:35:13.618Z,14.93
2018-06-09T14:37:46.091Z,14.47
2018-06-09T14:40:18.138Z,15.13
2018-06-09T14:42:50.367Z,17.60
2018-06-09T14:45:22.578Z,19.90
2018-06-09T14:47:54.690Z,19.10
2018-06-09T14:50:26.822Z,20.32
2018-06-09T14:52:59.032Z,18.37
2018-06-09T14:55:31.108Z,23.07
2018-06-09T14:58:03.008Z,21.25
2018-06-09T15:00:35.160Z,22.35
2018-06-09T15:03:07.210Z,20.88
2018-06-09T15:05:39.478Z,21.48
2018-06-09T15:08:11.577Z,22.67
2018-06-09T15:10:43.692Z,21.95
2018-06-09T15:13:16.199Z,21.02
2018-06-09T15:15:48.359Z,19.90
2018-06-09T15:18:20.259Z,20.55
2018-06-09T15:20:52.651Z,21.48
2018-06-09T15:23:24.729Z,19.80
2018-06-09T15:25:56.862Z,22.07
2018-06-09T15:28:29.216Z,20.65
2018-06-09T15:31:01.554Z,18.70
2018-06-09T15:33:33.735Z,20.40
2018-06-09T15:36:05.805Z,19.48
2018-06-09T15:38:37.937Z,18.27
2018-06-09T15:41:10.075Z,18.05
2018-06-09T15:43:42.402Z,16.65
2018-06-09T15:46:14.765Z,17.37
2018-06-09T15:48:46.896Z,16.97
2018-06-09T15:51:18.979Z,15.50
2018-06-09T15:53:51.512Z,19.23
2018-06-09T15:56:23.887Z,22.90
2018-06-09T15:58:56.110Z,20.00
2018-06-09T16:01:28.436Z,17.82
2018-06-09T16:04:00.631Z,16.40
2018-06-09T16:06:32.487Z,18.02
2018-06-09T16:09:06.476Z,21.50
2018-06-09T16:11:38.648Z,21.75
2018-06-09T16:14:10.668Z,21.07
2018-06-09T16:16:42.804Z,20.48
2018-06-09T16:19:15.142Z,19.25
2018-06-09T16:21:47.429Z,19.87
2018-06-09T16:24:19.531Z,17.92
2018-06-09T16:26:51.298Z,16.20
2018-06-09T16:29:23.222Z,17.20
2018-06-09T16:31:55.386Z,15.60
2018-06-09T16:34:28.866Z,17.50
2018-06-09T16:37:00.856Z,18.02
2018-06-09T16:39:32.702Z,16.97
2018-06-09T16:42:04.530Z,17.65
2018-06-09T16:44:36.800Z,16.27
2018-06-09T16:47:09.268Z,17.30
2018-06-09T16:49:41.444Z,16.55
2018-06-09T16:52:13.514Z,17.15
2018-06-09T16:54:45.696Z,15.88
2018-06-09T16:57:17.455Z,14.75
2018-06-09T16:59:49.591Z,14.43
2018-06-09T17:02:21.674Z,15.43
2018-06-09T17:04:54.131Z,13.40
2018-06-09T17:07:26.185Z,15.00
2018-06-09T17:09:58.406Z,14.80
2018-06-09T17:12:30.457Z,14.00
2018-06-09T17:15:02.648Z,14.45
2018-06-09T17:17:34.718Z,13.30
2018-06-09T17:20:06.940Z,14.85
2018-06-09T17:22:39.585Z,14.73
2018-06-09T17:25:12.292Z,13.78
2018-06-09T17:27:44.566Z,13.13
2018-06-09T17:30:16.626Z,13.50
2018-06-09T17:32:48.727Z,13.35
2018-06-09T17:35:21.166Z,12.25
2018-06-09T17:37:53.302Z,13.18
2018-06-09T17:40:27.655Z,13.45
2018-06-09T17:43:00.163Z,13.88
2018-06-09T17:45:32.301Z,13.50
2018-06-09T17:48:04.557Z,12.43
2018-06-09T17:50:36.711Z,14.03
2018-06-09T17:53:09.649Z,14.60
2018-06-09T17:55:41.769Z,14.45
2018-06-09T17:58:13.870Z,15.65
2018-06-09T18:00:46.045Z,15.50
2018-06-09T18:03:18.162Z,15.00
2018-06-09T18:05:49.956Z,14.53
2018-06-09T18:08:22.214Z,14.60
2018-06-09T18:10:54.491Z,13.75
2018-06-09T18:13:26.656Z,13.78
2018-06-09T18:15:59.148Z,14.28
2018-06-09T18:18:31.841Z,15.83
2018-06-09T18:21:04.008Z,15.28
2018-06-09T18:23:35.891Z,16.02
2018-06-09T18:26:08.217Z,15.80
2018-06-09T18:28:40.735Z,15.98
2018-06-09T18:31:12.372Z,16.10
2018-06-09T18:33:44.618Z,14.45
2018-06-09T18:36:17.284Z,15.48
2018-06-09T18:38:49.729Z,15.25
2018-06-09T18:41:21.421Z,16.40
2018-06-09T18:43:53.109Z,16.50
2018-06-09T18:46:25.523Z,16.45
2018-06-09T18:48:58.539Z,16.40
2018-06-09T18:51:30.246Z,15.80
2018-06-09T18:54:02.744Z,15.07
2018-06-09T18:56:34.912Z,16.23
2018-06-09T18:59:06.784Z,17.40
2018-06-09T19:01:38.772Z,15.80
2018-06-09T19:04:11.350Z,17.02
2018-06-09T19:06:43.836Z,15.93
2018-06-09T19:09:15.632Z,15.70
2018-06-09T19:11:47.584Z,17.00
2018-06-09T19:14:19.230Z,15.63
2018-06-09T19:16:50.555Z,16.37
2018-06-09T19:19:22.112Z,15.57
2018-06-09T19:21:53.847Z,16.40
2018-06-09T19:24:25.292Z,15.23
2018-06-09T19:26:56.979Z,15.80
2018-06-09T19:29:29.417Z,14.13
2018-06-09T19:32:01.386Z,14.73
2018-06-09T19:34:33.358Z,16.40
2018-06-09T19:37:05.006Z,16.17
2018-06-09T19:39:36.650Z,15.50
2018-06-09T19:42:08.298Z,16.07
2018-06-09T19:44:39.486Z,15.73
2018-06-09T19:47:10.840Z,16.77
2018-06-09T19:49:42.442Z,16.10
2018-06-09T19:52:13.917Z,16.20
2018-06-09T19:54:45.406Z,15.23
2018-06-09T19:57:17.041Z,15.33
2018-06-09T19:59:48.680Z,14.70
2018-06-09T20:02:20.441Z,14.93
2018-06-09T20:04:52.086Z,13.63
2018-06-09T20:07:23.620Z,14.47
2018-06-09T20:09:55.145Z,13.37
2018-06-09T20:12:26.955Z,12.77
2018-06-09T20:14:58.520Z,12.67
2018-06-09T20:17:29.953Z,12.23
2018-06-09T20:20:01.303Z,13.10
2018-06-09T20:22:32.896Z,13.27
2018-06-09T20:25:04.515Z,13.50
2018-06-09T20:27:36.508Z,13.53
2018-06-09T20:30:08.297Z,13.60
2018-06-09T20:32:40.015Z,13.37
2018-06-09T20:35:11.738Z,13.00
2018-06-09T20:37:43.446Z,12.83
2018-06-09T20:40:15.598Z,13.40
2018-06-09T20:42:47.254Z,14.73
2018-06-09T20:45:18.777Z,13.00
2018-06-09T20:47:50.081Z,13.67
2018-06-09T20:50:21.391Z,12.37
2018-06-09T20:52:53.406Z,13.90
2018-06-09T20:55:25.230Z,12.93
2018-06-09T20:57:56.829Z,11.67
2018-06-09T21:00:28.483Z,11.57
2018-06-09T21:03:00.153Z,12.00
2018-06-09T21:05:31.884Z,11.53
2018-06-09T21:08:03.485Z,10.93
2018-06-09T21:10:35.035Z,11.17
2018-06-09T21:13:06.818Z,10.97
2018-06-09T21:15:38.553Z,11.47
2018-06-09T21:18:10.541Z,11.20
2018-06-09T21:20:41.789Z,13.77
2018-06-09T21:23:13.199Z,11.13
2018-06-09T21:25:44.712Z,10.87
2018-06-09T21:28:21.926Z,11.77
2018-06-09T21:30:58.910Z,10.90
2018-06-09T21:33:52.465Z,12.47
2018-06-09T21:36:28.369Z,10.83
2018-06-09T21:39:01.064Z,10.20
2018-06-09T21:41:37.586Z,10.53
2018-06-09T21:44:19.143Z,10.60
2018-06-09T21:46:50.759Z,10.70
2018-06-09T21:49:22.407Z,10.90
2018-06-09T21:51:53.905Z,10.13
2018-06-09T21:54:25.149Z,10.23
2018-06-09T21:56:56.710Z,10.40
2018-06-09T21:59:28.275Z,9.63
2018-06-09T22:02:02.705Z,10.87
2018-06-09T22:04:34.235Z,11.17
2018-06-09T22:07:07.022Z,10.07
2018-06-09T22:09:38.911Z,10.23
2018-06-09T22:12:11.157Z,9.60
2018-06-09T22:14:43.186Z,10.00
2018-06-09T22:17:14.896Z,9.60
2018-06-09T22:19:46.367Z,11.27
2018-06-09T22:22:18.300Z,8.87
2018-06-09T22:24:50.212Z,8.73
2018-06-09T22:27:21.790Z,8.60
2018-06-09T22:29:55.221Z,10.07
2018-06-09T22:32:28.266Z,9.07
2018-06-09T22:34:59.754Z,9.93
2018-06-09T22:37:31.688Z,9.67
2018-06-09T22:40:03.620Z,8.63
2018-06-09T22:42:35.382Z,8.93
2018-06-09T22:45:07.069Z,9.33
2018-06-09T22:47:38.906Z,8.30
2018-06-09T22:50:10.585Z,9.40
2018-06-09T22:52:42.076Z,10.03
2018-06-09T22:55:14.027Z,9.37
2018-06-09T22:57:45.683Z,11.60
2018-06-09T23:00:31.111Z,10.33
2018-06-09T23:03:02.423Z,9.57
2018-06-09T23:05:33.963Z,8.13
2018-06-09T23:08:05.534Z,9.07
2018-06-09T23:10:37.883Z,8.73
2018-06-09T23:13:10.077Z,9.03
2018-06-09T23:15:42.715Z,8.83
2018-06-09T23:18:14.349Z,8.63
2018-06-09T23:20:46.218Z,10.00
2018-06-09T23:23:18.001Z,9.53
2018-06-09T23:25:49.459Z,8.63
2018-06-09T23:28:21.402Z,9.03
2018-06-09T23:30:55.822Z,7.93
2018-06-09T23:33:27.353Z,10.30
2018-06-09T23:35:59.280Z,7.87
2018-06-09T23:38:30.819Z,9.00
2018-06-09T23:41:02.409Z,10.10
2018-06-09T23:43:34.090Z,7.57
2018-06-09T23:46:05.793Z,7.43
2018-06-09T23:48:38.137Z,8.63
2018-06-09T23:51:10.795Z,9.00
2018-06-09T23:53:42.524Z,7.97
2018-06-09T23:56:14.640Z,8.83
2018-06-09T23:58:47.781Z,7.90
